Time;durP1;ratioP1;P1;durP2;ratioP2;P2;SDS_P1;SDS_P2;PMS_P1;PMS_P2;Temp;Humidity;BMP_temperature;BMP_pressure;BME280_temperature;BME280_humidity;BME280_pressure;Samples;Min_cycle;Max_cycle;Signal;HPM_P1;HPM_P2
2021/06/24 00:01:29;;;;;;;31.15;26.75;;;;;;;20.40;86.36;96690.03;1635736;86;21027;-80
2021/06/24 00:03:55;;;;;;;31.20;26.48;;;;;;;20.38;86.50;96685.52;1644985;85;21026;-80
2021/06/24 00:06:21;;;;;;;28.92;25.88;;;;;;;20.35;86.37;96694.70;1661918;85;20928;-80
2021/06/24 00:08:46;;;;;;;32.75;26.85;;;;;;;20.38;86.49;96705.30;1663716;84;20983;-79
2021/06/24 00:11:12;;;;;;;34.03;27.90;;;;;;;20.38;86.33;96704.78;1637623;86;20993;-80
2021/06/24 00:13:38;;;;;;;31.12;27.67;;;;;;;20.38;86.26;96698.71;1637536;86;21012;-80
2021/06/24 00:16:05;;;;;;;30.05;26.82;;;;;;;20.32;86.42;96689.08;1640834;86;21373;-80
2021/06/24 00:18:32;;;;;;;29.20;25.12;;;;;;;20.31;86.40;96686.16;1637553;86;21083;-80
2021/06/24 00:20:58;;;;;;;30.02;24.90;;;;;;;20.27;86.27;96673.96;1637559;86;21257;-80
2021/06/24 00:23:24;;;;;;;27.93;24.12;;;;;;;20.27;86.27;96673.96;1636227;86;20986;-80
2021/06/24 00:25:50;;;;;;;30.15;25.85;;;;;;;20.27;86.19;96674.48;1661718;85;21000;-79
2021/06/24 00:28:16;;;;;;;34.40;27.58;;;;;;;20.29;86.14;96679.80;1659153;85;21250;-79
2021/06/24 00:30:45;;;;;;;30.43;27.17;;;;;;;20.30;86.11;96676.64;1643177;86;21035;-80
2021/06/24 00:33:11;;;;;;;33.35;26.85;;;;;;;20.30;86.08;96670.05;1658720;84;20944;-80
2021/06/24 00:35:37;;;;;;;36.93;29.10;;;;;;;20.27;86.15;96659.45;1676062;84;21268;-80
2021/06/24 00:38:04;;;;;;;28.73;25.55;;;;;;;20.24;86.17;96655.16;1676311;84;21226;-80
2021/06/24 00:40:33;;;;;;;31.75;27.35;;;;;;;20.22;86.12;96653.28;1638425;86;21009;-80
2021/06/24 00:43:00;;;;;;;33.42;27.13;;;;;;;20.20;86.12;96642.97;1663288;85;21000;-80
2021/06/24 00:45:26;;;;;;;33.25;26.90;;;;;;;20.18;86.30;96637.13;1665121;85;21039;-80
2021/06/24 00:47:52;;;;;;;29.80;25.92;;;;;;;20.15;86.24;96633.63;1673181;84;20935;-80
2021/06/24 00:50:18;;;;;;;36.15;28.42;;;;;;;20.12;86.32;96633.30;1640139;86;21318;-80
2021/06/24 00:52:43;;;;;;;30.32;27.07;;;;;;;20.10;86.28;96636.17;1632758;86;20967;-79
2021/06/24 00:55:10;;;;;;;32.50;27.02;;;;;;;20.12;86.35;96637.26;1664949;84;20969;-80
2021/06/24 00:57:35;;;;;;;30.52;26.37;;;;;;;20.08;86.22;96631.66;1677853;85;21218;-79
2021/06/24 01:00:03;;;;;;;32.70;27.87;;;;;;;20.04;86.27;96628.70;1676511;84;20943;-80
2021/06/24 01:02:28;;;;;;;33.85;26.70;;;;;;;20.01;86.38;96615.16;1658350;85;21002;-80
2021/06/24 01:04:54;;;;;;;32.70;26.65;;;;;;;19.97;86.31;96613.51;1677785;84;21342;-80
2021/06/24 01:07:20;;;;;;;32.63;27.67;;;;;;;19.94;86.44;96613.98;1667886;85;20996;-79
2021/06/24 01:09:45;;;;;;;32.80;28.02;;;;;;;19.93;86.24;96613.70;1668846;86;20991;-79
2021/06/24 01:12:12;;;;;;;32.50;25.88;;;;;;;19.88;86.35;96606.22;1667823;85;21075;-80
2021/06/24 01:14:38;;;;;;;37.80;29.50;;;;;;;19.83;86.42;96603.47;1642077;86;21332;-80
2021/06/24 01:17:04;;;;;;;35.73;29.48;;;;;;;19.80;87.02;96608.70;1668876;85;20900;-80
2021/06/24 01:19:30;;;;;;;35.98;29.48;;;;;;;19.78;87.40;96618.69;1668338;85;20986;-80
2021/06/24 01:21:56;;;;;;;33.18;29.32;;;;;;;19.79;87.77;96628.19;1668327;85;21248;-79
2021/06/24 01:24:22;;;;;;;36.75;28.52;;;;;;;19.85;88.00;96618.05;1668801;85;21283;-80
2021/06/24 01:26:48;;;;;;;35.80;28.40;;;;;;;19.91;88.27;96621.05;1668688;85;20983;-80
2021/06/24 01:29:14;;;;;;;34.00;27.82;;;;;;;19.91;88.60;96609.19;1646310;85;20956;-79
2021/06/24 01:31:40;;;;;;;35.48;28.80;;;;;;;19.92;88.21;96609.47;1666604;85;20930;-80
2021/06/24 01:34:07;;;;;;;39.45;30.20;;;;;;;19.91;88.65;96609.19;1667700;85;21222;-79
2021/06/24 01:36:33;;;;;;;38.60;30.48;;;;;;;19.92;88.64;96608.67;1666976;85;20932;-80
2021/06/24 01:38:59;;;;;;;35.00;28.38;;;;;;;19.94;89.01;96607.91;1668217;85;21241;-80
2021/06/24 01:41:25;;;;;;;39.73;29.42;;;;;;;19.96;89.19;96603.20;1668938;86;20971;-80
2021/06/24 01:43:51;;;;;;;35.60;29.52;;;;;;;20.01;89.62;96596.69;1663619;85;21032;-80
2021/06/24 01:46:17;;;;;;;32.73;27.13;;;;;;;20.05;89.65;96594.69;1637912;86;21294;-79
2021/06/24 01:48:43;;;;;;;36.00;27.73;;;;;;;20.12;90.15;96591.09;1670053;84;20913;-80
2021/06/24 01:51:09;;;;;;;35.15;28.62;;;;;;;20.22;90.43;96583.37;1645834;85;21019;-80
2021/06/24 01:53:34;;;;;;;34.48;28.77;;;;;;;20.33;90.96;96578.01;1665031;85;21952;-80
2021/06/24 01:56:00;;;;;;;32.13;28.17;;;;;;;20.41;90.62;96573.39;1675630;84;20938;-80
2021/06/24 01:58:27;;;;;;;33.73;28.15;;;;;;;20.50;90.61;96564.88;1665931;84;20947;-80
2021/06/24 02:00:55;;;;;;;29.95;25.60;;;;;;;20.57;90.57;96560.23;1681865;84;20954;-80
2021/06/24 02:03:21;;;;;;;33.73;26.75;;;;;;;20.62;90.44;96549.74;1675770;84;20989;-81
2021/06/24 02:05:50;;;;;;;32.75;27.58;;;;;;;20.65;90.10;96559.81;1649879;84;21024;-81
2021/06/24 02:08:19;;;;;;;28.65;24.67;;;;;;;20.72;90.11;96550.95;1670025;84;20958;-81
2021/06/24 02:10:45;;;;;;;34.58;27.13;;;;;;;20.80;90.81;96553.97;1655596;84;21053;-81
2021/06/24 02:13:11;;;;;;;31.80;26.93;;;;;;;20.90;90.18;96555.97;1654988;84;21330;-81
2021/06/24 02:15:38;;;;;;;30.70;26.87;;;;;;;20.95;89.75;96568.72;1677560;84;20988;-81
2021/06/24 02:18:04;;;;;;;31.02;26.90;;;;;;;21.01;89.45;96551.64;1670581;84;20998;-81
2021/06/24 02:20:30;;;;;;;33.92;26.60;;;;;;;21.06;89.31;96557.78;1654735;84;20970;-81
2021/06/24 02:22:57;;;;;;;32.83;26.57;;;;;;;21.07;89.05;96554.09;1654848;84;21005;-81
2021/06/24 02:25:23;;;;;;;33.15;25.70;;;;;;;21.09;89.09;96551.20;1674580;84;20998;-81
2021/06/24 02:27:48;;;;;;;32.65;25.77;;;;;;;21.05;88.75;96546.14;1674425;84;20982;-81
2021/06/24 02:30:15;;;;;;;29.42;25.17;;;;;;;21.02;88.65;96555.87;1671221;84;20906;-81
2021/06/24 02:32:40;;;;;;;31.85;25.80;;;;;;;20.98;88.68;96555.53;1656754;84;20954;-81
2021/06/24 02:35:08;;;;;;;31.93;25.85;;;;;;;21.00;88.62;96559.28;1650158;84;20992;-81
2021/06/24 02:37:34;;;;;;;36.53;30.12;;;;;;;20.95;88.51;96559.98;1652768;84;21331;-81
2021/06/24 02:40:00;;;;;;;35.68;31.37;;;;;;;20.92;88.39;96557.84;1663441;84;20990;-81
2021/06/24 02:42:26;;;;;;;36.88;30.45;;;;;;;20.93;88.27;96560.23;1676172;84;20966;-81
2021/06/24 02:44:51;;;;;;;32.50;28.57;;;;;;;20.97;88.34;96557.91;1636995;85;21246;-81
2021/06/24 02:47:17;;;;;;;33.90;28.35;;;;;;;20.96;88.21;96556.30;1677156;83;20948;-81
2021/06/24 02:49:43;;;;;;;32.63;29.07;;;;;;;20.93;88.12;96560.23;1664687;85;20927;-81
2021/06/24 02:52:09;;;;;;;30.15;24.43;;;;;;;20.92;88.10;96557.31;1673972;85;20960;-81
2021/06/24 02:54:35;;;;;;;27.55;23.30;;;;;;;20.84;87.69;96547.18;1670038;84;21057;-81
2021/06/24 02:57:01;;;;;;;27.42;23.35;;;;;;;20.84;87.69;96547.18;1647611;85;20962;-81
2021/06/24 02:59:27;;;;;;;27.02;22.52;;;;;;;20.85;87.81;96555.38;1670916;84;21311;-81
2021/06/24 03:01:53;;;;;;;24.67;21.75;;;;;;;20.78;87.57;96546.01;1670938;84;20993;-81
2021/06/24 03:04:21;;;;;;;26.65;23.20;;;;;;;20.71;87.59;96542.75;1671058;85;21001;-81
2021/06/24 03:06:47;;;;;;;27.20;23.22;;;;;;;20.68;87.86;96542.72;1671328;84;20938;-81
2021/06/24 03:09:13;;;;;;;28.62;25.08;;;;;;;20.63;87.61;96542.62;1662227;86;21031;-81
2021/06/24 03:11:39;;;;;;;28.80;25.70;;;;;;;20.55;87.61;96551.76;1654520;85;21320;-81
2021/06/24 03:14:04;;;;;;;29.77;23.47;;;;;;;20.57;87.97;96553.63;1678179;83;20984;-81
2021/06/24 03:16:30;;;;;;;28.57;25.00;;;;;;;20.55;87.91;96555.72;1685359;83;20967;-81
2021/06/24 03:18:56;;;;;;;28.02;25.12;;;;;;;20.57;87.80;96550.99;1670917;85;21339;-81
2021/06/24 03:21:22;;;;;;;28.67;23.98;;;;;;;20.58;87.76;96555.23;1671498;84;21039;-81
2021/06/24 03:23:48;;;;;;;27.85;23.65;;;;;;;20.52;87.67;96557.52;1670869;85;21556;-81
2021/06/24 03:26:14;;;;;;;26.73;23.22;;;;;;;20.49;87.76;96565.89;1650282;85;20988;-81
2021/06/24 03:28:40;;;;;;;26.87;23.50;;;;;;;20.52;87.98;96568.60;1671220;85;20959;-81
2021/06/24 03:31:05;;;;;;;31.17;26.68;;;;;;;20.52;87.87;96575.20;1666369;84;21288;-81
2021/06/24 03:33:31;;;;;;;27.30;22.27;;;;;;;20.54;88.06;96573.91;1652367;85;20934;-81
2021/06/24 03:35:57;;;;;;;28.10;23.55;;;;;;;20.56;87.89;96573.67;1676575;84;20992;-81
2021/06/24 03:38:23;;;;;;;27.50;23.50;;;;;;;20.56;87.81;96567.08;1678256;84;20971;-81
2021/06/24 03:40:48;;;;;;;26.95;22.30;;;;;;;20.56;87.75;96559.95;1673485;84;21032;-81
2021/06/24 03:43:14;;;;;;;25.45;22.45;;;;;;;20.60;87.67;96558.42;1671840;84;20994;-81
2021/06/24 03:45:40;;;;;;;25.00;21.55;;;;;;;20.63;87.78;96551.86;1680426;84;21118;-81
2021/06/24 03:48:07;;;;;;;25.05;21.73;;;;;;;20.68;87.51;96555.92;1682777;84;20975;-81
2021/06/24 03:50:34;;;;;;;32.38;27.40;;;;;;;20.73;87.51;96557.83;1681986;85;20989;-81
2021/06/24 03:52:59;;;;;;;30.70;26.15;;;;;;;20.73;87.63;96561.27;1681094;84;20984;-81
2021/06/24 03:55:38;;;;;;;30.57;26.87;;;;;;;20.73;87.40;96571.03;1682674;84;21029;-81
2021/06/24 03:58:05;;;;;;;28.52;25.43;;;;;;;20.72;87.41;96579.47;1680385;85;21025;-81
2021/06/24 04:00:34;;;;;;;29.15;25.75;;;;;;;20.71;87.44;96576.55;1680368;85;21242;-81
2021/06/24 04:03:00;;;;;;;27.65;22.58;;;;;;;20.68;87.33;96579.68;1669230;85;20948;-81
2021/06/24 04:05:28;;;;;;;26.62;23.83;;;;;;;20.64;87.38;96574.58;1666553;86;20992;-81
2021/06/24 04:07:53;;;;;;;29.15;25.30;;;;;;;20.65;87.49;96576.17;1650565;86;20974;-81
2021/06/24 04:10:19;;;;;;;30.37;26.10;;;;;;;20.66;87.83;96568.04;1663582;85;21012;-81
2021/06/24 04:12:44;;;;;;;22.98;20.12;;;;;;;20.75;87.79;96571.06;1666029;85;20996;-81
2021/06/24 04:15:12;;;;;;;28.42;24.50;;;;;;;20.83;87.47;96575.16;1666681;86;20999;-81
2021/06/24 04:17:38;;;;;;;28.20;24.20;;;;;;;20.87;87.50;96586.30;1665835;85;20980;-81
2021/06/24 04:20:06;;;;;;;29.40;26.27;;;;;;;20.85;87.28;96588.39;1671369;85;20928;-81
2021/06/24 04:22:32;;;;;;;32.75;26.60;;;;;;;20.83;87.38;96596.28;1661458;86;20976;-82
2021/06/24 04:24:58;;;;;;;30.92;26.68;;;;;;;20.84;87.47;96596.56;1633139;86;20978;-81
2021/06/24 04:27:24;;;;;;;29.23;25.95;;;;;;;20.84;87.68;96601.31;1644878;86;20961;-81
2021/06/24 04:29:49;;;;;;;28.15;25.17;;;;;;;20.86;87.96;96603.20;1665818;86;20931;-81
2021/06/24 04:32:15;;;;;;;29.80;25.02;;;;;;;20.95;88.02;96598.29;1666561;86;20996;-81
2021/06/24 04:34:41;;;;;;;28.15;23.30;;;;;;;20.98;88.05;96600.44;1666149;85;21309;-81
2021/06/24 04:37:06;;;;;;;24.18;21.00;;;;;;;21.07;88.23;96596.88;1666537;86;20991;-81
2021/06/24 04:39:32;;;;;;;31.48;24.63;;;;;;;21.07;88.03;96594.24;1663221;86;20982;-81
2021/06/24 04:41:58;;;;;;;29.98;26.40;;;;;;;21.07;88.06;96589.75;1663760;86;21040;-81
2021/06/24 04:44:24;;;;;;;29.70;25.15;;;;;;;21.16;88.24;96586.19;1666697;86;21007;-81
2021/06/24 04:46:50;;;;;;;30.80;26.05;;;;;;;21.21;88.16;96577.00;1666521;86;21256;-81
2021/06/24 04:49:17;;;;;;;30.77;25.68;;;;;;;21.25;88.00;96579.45;1665698;86;20918;-81
2021/06/24 04:51:43;;;;;;;33.13;28.12;;;;;;;21.26;87.80;96588.98;1648640;86;20993;-81
2021/06/24 04:54:09;;;;;;;30.05;25.82;;;;;;;21.27;88.11;96588.73;1655918;86;20963;-81
2021/06/24 04:56:35;;;;;;;26.35;23.55;;;;;;;21.32;88.12;96589.34;1645612;85;21021;-81
2021/06/24 04:59:01;;;;;;;25.82;22.20;;;;;;;21.37;87.98;96587.28;1653942;85;21001;-81
2021/06/24 05:01:26;;;;;;;33.38;26.23;;;;;;;21.38;87.91;96593.64;1653604;85;21302;-81
2021/06/24 05:03:52;;;;;;;30.40;25.00;;;;;;;21.41;87.91;96599.76;1644938;86;21048;-81
2021/06/24 05:06:18;;;;;;;35.78;29.23;;;;;;;21.47;87.99;96609.34;1640063;85;20945;-81
2021/06/24 05:08:44;;;;;;;40.48;32.95;;;;;;;21.53;87.97;96616.31;1626473;85;20991;-81
2021/06/24 05:11:10;;;;;;;36.28;31.77;;;;;;;21.58;87.95;96623.50;1643498;85;21289;-81
2021/06/24 05:13:35;;;;;;;35.65;30.88;;;;;;;21.64;87.98;96610.64;1653979;85;21020;-81
2021/06/24 05:16:01;;;;;;;38.85;33.92;;;;;;;21.66;87.69;96628.38;1644251;85;21028;-81
2021/06/24 05:18:27;;;;;;;42.33;34.67;;;;;;;21.68;87.87;96647.44;1657075;85;21633;-81
2021/06/24 05:20:53;;;;;;;43.05;35.40;;;;;;;21.74;87.88;96655.70;1653639;85;20957;-81
2021/06/24 05:23:18;;;;;;;42.62;33.10;;;;;;;21.79;87.71;96661.05;1643966;85;20992;-81
2021/06/24 05:25:47;;;;;;;39.53;33.70;;;;;;;21.80;87.36;96662.67;1653983;85;20944;-81
2021/06/24 05:28:13;;;;;;;39.33;34.95;;;;;;;21.85;87.46;96668.02;1668914;85;20979;-81
2021/06/24 05:30:39;;;;;;;41.10;34.83;;;;;;;21.85;87.06;96672.51;1668304;85;21015;-81
2021/06/24 05:33:05;;;;;;;40.52;33.75;;;;;;;21.84;86.94;96670.91;1668615;85;21281;-81
2021/06/24 05:35:31;;;;;;;41.63;34.25;;;;;;;21.81;86.84;96668.77;1667634;85;20996;-81
2021/06/24 05:37:58;;;;;;;44.18;36.13;;;;;;;21.71;86.46;96666.78;1668624;85;21030;-81
2021/06/24 05:40:23;;;;;;;45.75;35.58;;;;;;;21.63;86.44;96674.32;1667926;85;21042;-81
2021/06/24 05:42:49;;;;;;;48.50;38.15;;;;;;;21.58;86.54;96669.77;1667212;85;21008;-81
2021/06/24 05:45:16;;;;;;;43.17;36.25;;;;;;;21.47;86.37;96668.03;1654740;85;21042;-81
2021/06/24 05:47:41;;;;;;;46.73;37.98;;;;;;;21.41;86.49;96663.72;1669104;85;20934;-81
2021/06/24 05:50:08;;;;;;;47.10;37.30;;;;;;;21.42;86.84;96666.12;1666851;85;21909;-81
2021/06/24 05:52:35;;;;;;;51.50;38.17;;;;;;;21.42;86.65;96670.61;1663259;85;21342;-81
2021/06/24 05:55:01;;;;;;;47.60;36.42;;;;;;;21.41;86.51;96661.88;1661208;85;21032;-81
2021/06/24 05:57:27;;;;;;;54.53;37.63;;;;;;;21.40;86.47;96658.95;1652149;85;21336;-81
2021/06/24 05:59:55;;;;;;;52.88;38.67;;;;;;;21.42;86.54;96661.35;1668126;85;20950;-81
2021/06/24 06:02:20;;;;;;;50.10;37.20;;;;;;;21.42;86.72;96669.28;1669159;85;20941;-81
2021/06/24 06:04:47;;;;;;;55.28;40.50;;;;;;;21.43;86.71;96682.78;1669160;85;21023;-81
2021/06/24 06:07:12;;;;;;;57.75;40.88;;;;;;;21.36;86.31;96672.91;1650544;85;20934;-81
2021/06/24 06:09:38;;;;;;;58.63;39.70;;;;;;;21.35;86.63;96669.98;1659020;85;21220;-81
2021/06/24 06:12:05;;;;;;;53.00;36.45;;;;;;;21.33;86.67;96675.52;1628800;86;20961;-81
2021/06/24 06:14:31;;;;;;;55.83;38.30;;;;;;;21.36;86.89;96676.35;1673289;84;20990;-81
2021/06/24 06:16:58;;;;;;;57.40;40.98;;;;;;;21.36;86.94;96678.20;1639518;86;21066;-81
2021/06/24 06:19:25;;;;;;;56.05;38.98;;;;;;;21.36;86.94;96678.20;1634208;86;20998;-81
2021/06/24 06:21:51;;;;;;;51.73;38.40;;;;;;;21.36;86.65;96680.84;1640729;86;21275;-81
2021/06/24 06:24:16;;;;;;;52.30;38.23;;;;;;;21.39;86.83;96673.22;1663541;85;21032;-81
2021/06/24 06:26:42;;;;;;;54.73;38.85;;;;;;;21.47;86.87;96662.73;1680588;85;20990;-81
2021/06/24 06:29:08;;;;;;;58.25;37.83;;;;;;;21.55;86.93;96664.98;1669980;84;20938;-81
2021/06/24 06:31:37;;;;;;;57.43;39.58;;;;;;;21.57;86.50;96665.53;1670069;84;20933;-81
2021/06/24 06:34:02;;;;;;;56.30;36.73;;;;;;;21.58;86.68;96673.22;1669270;84;21018;-81
2021/06/24 06:36:28;;;;;;;52.08;37.45;;;;;;;21.74;87.15;96669.45;1659433;85;21271;-81
2021/06/24 06:38:53;;;;;;;55.52;37.30;;;;;;;21.85;86.64;96660.61;1659689;85;20993;-81
2021/06/24 06:41:19;;;;;;;47.65;36.08;;;;;;;21.97;86.82;96652.55;1661448;85;21049;-81
2021/06/24 06:43:45;;;;;;;52.27;35.50;;;;;;;22.01;86.15;96640.42;1655674;85;20969;-81
2021/06/24 06:46:10;;;;;;;51.20;35.70;;;;;;;22.08;86.20;96643.70;1655072;85;21286;-81
2021/06/24 06:48:36;;;;;;;50.43;35.38;;;;;;;22.17;85.83;96636.92;1664968;85;21006;-81
2021/06/24 06:51:03;;;;;;;52.43;38.20;;;;;;;22.28;85.52;96631.19;1643826;85;21011;-81
2021/06/24 06:53:28;;;;;;;41.98;33.45;;;;;;;22.40;85.33;96633.17;1654237;85;20973;-81
2021/06/24 06:55:54;;;;;;;49.25;35.95;;;;;;;22.50;85.38;96633.80;1669458;85;21035;-81
2021/06/24 06:58:20;;;;;;;48.85;35.63;;;;;;;22.60;84.74;96633.35;1669109;85;20990;-81
2021/06/24 07:00:46;;;;;;;43.28;32.88;;;;;;;22.71;84.63;96632.92;1669314;85;21279;-81
2021/06/24 07:03:11;;;;;;;52.35;36.40;;;;;;;22.88;85.10;96634.95;1662932;85;20914;-81
2021/06/24 07:05:37;;;;;;;42.08;32.83;;;;;;;22.96;83.05;96633.70;1661964;85;20989;-82
2021/06/24 07:08:04;;;;;;;47.73;34.38;;;;;;;22.89;83.11;96622.50;1658065;85;21239;-81
2021/06/24 07:10:29;;;;;;;43.85;34.75;;;;;;;22.93;83.11;96620.93;1656115;85;20949;-81
2021/06/24 07:12:55;;;;;;;42.35;31.73;;;;;;;23.03;83.34;96613.86;1670001;85;20945;-81
2021/06/24 07:15:21;;;;;;;43.20;33.75;;;;;;;23.17;83.03;96613.42;1669341;85;20954;-81
2021/06/24 07:17:47;;;;;;;42.65;33.02;;;;;;;23.19;82.72;96612.64;1650564;84;20994;-81
2021/06/24 07:20:15;;;;;;;42.40;31.42;;;;;;;23.23;82.87;96615.84;1656234;84;20989;-81
2021/06/24 07:22:41;;;;;;;41.90;33.30;;;;;;;23.33;81.73;96611.13;1650486;85;21013;-81
2021/06/24 07:25:09;;;;;;;44.30;32.50;;;;;;;23.24;80.51;96606.03;1669563;85;20993;-82
2021/06/24 07:27:35;;;;;;;43.35;33.98;;;;;;;23.17;81.70;96600.17;1668927;84;20958;-81
2021/06/24 07:30:00;;;;;;;47.43;35.92;;;;;;;23.25;81.67;96602.32;1668708;84;21207;-81
2021/06/24 07:32:26;;;;;;;43.10;33.88;;;;;;;23.33;81.15;96606.63;1666844;84;20982;-81
2021/06/24 07:34:52;;;;;;;44.55;34.75;;;;;;;23.40;81.04;96604.27;1668681;84;20934;-81
2021/06/24 07:37:18;;;;;;;43.70;35.05;;;;;;;23.42;80.11;96610.10;1668785;84;20933;-81
2021/06/24 07:39:43;;;;;;;42.62;34.63;;;;;;;23.36;80.83;96615.39;1668216;84;20946;-81
2021/06/24 07:42:09;;;;;;;44.38;34.55;;;;;;;23.48;81.11;96613.86;1641378;86;21087;-81
2021/06/24 07:44:35;;;;;;;43.45;34.15;;;;;;;23.58;81.07;96609.95;1667275;84;21277;-82
2021/06/24 07:47:03;;;;;;;43.92;34.40;;;;;;;23.61;80.46;96608.66;1677235;84;21047;-81
2021/06/24 07:49:29;;;;;;;45.75;33.13;;;;;;;23.63;80.40;96610.52;1665214;85;21014;-81
2021/06/24 07:51:55;;;;;;;41.40;32.58;;;;;;;23.73;80.55;96619.03;1666111;85;20942;-81
2021/06/24 07:54:20;;;;;;;44.75;35.15;;;;;;;23.74;80.61;96609.48;1651674;85;20969;-81
2021/06/24 07:56:46;;;;;;;44.33;33.98;;;;;;;23.79;80.36;96610.85;1667581;85;20978;-81
2021/06/24 07:59:13;;;;;;;47.70;37.13;;;;;;;23.94;81.10;96612.77;1670320;85;20999;-81
2021/06/24 08:01:41;;;;;;;42.30;34.92;;;;;;;24.01;80.20;96616.48;1668030;85;20947;-81
2021/06/24 08:04:07;;;;;;;42.03;35.58;;;;;;;24.00;80.16;96604.28;1671727;86;20987;-81
2021/06/24 08:06:33;;;;;;;46.05;35.90;;;;;;;24.11;79.91;96610.69;1658946;85;20947;-81
2021/06/24 08:08:59;;;;;;;49.60;37.60;;;;;;;24.23;78.91;96603.78;1649848;85;20930;-82
2021/06/24 08:11:24;;;;;;;45.45;35.90;;;;;;;24.31;79.49;96599.86;1666829;85;21002;-82
2021/06/24 08:13:50;;;;;;;39.08;32.30;;;;;;;24.47;79.36;96606.78;1666618;85;20960;-81
2021/06/24 08:16:16;;;;;;;39.45;32.00;;;;;;;24.59;79.49;96599.89;1661611;85;20923;-82
2021/06/24 08:18:42;;;;;;;39.38;31.57;;;;;;;24.63;79.59;96595.64;1671751;85;20944;-81
2021/06/24 08:21:09;;;;;;;41.95;33.73;;;;;;;24.81;78.94;96596.42;1671164;85;20999;-81
2021/06/24 08:23:38;;;;;;;43.90;34.13;;;;;;;25.01;79.17;96600.42;1669213;85;21237;-81
2021/06/24 08:26:03;;;;;;;34.55;27.77;;;;;;;25.14;77.32;96609.18;1668899;85;21290;-81
2021/06/24 08:28:30;;;;;;;42.88;36.08;;;;;;;25.26;77.08;96610.77;1669402;85;20979;-81
2021/06/24 08:30:59;;;;;;;37.20;31.77;;;;;;;25.36;77.28;96616.04;1665022;85;20994;-81
2021/06/24 08:33:24;;;;;;;37.98;32.05;;;;;;;25.60;75.77;96610.93;1669170;85;21017;-81
2021/06/24 08:35:50;;;;;;;38.15;32.00;;;;;;;25.71;77.19;96611.98;1650201;85;20931;-82
2021/06/24 08:38:15;;;;;;;36.70;31.30;;;;;;;25.87;77.00;96611.89;1648009;85;20972;-81
2021/06/24 08:40:41;;;;;;;39.98;35.50;;;;;;;25.91;77.02;96615.09;1666996;86;20975;-81
2021/06/24 08:43:08;;;;;;;42.65;36.10;;;;;;;25.97;76.15;96615.85;1667374;85;21074;-81
2021/06/24 08:45:34;;;;;;;40.25;33.35;;;;;;;25.97;75.94;96617.19;1667714;85;21071;-81
2021/06/24 08:48:00;;;;;;;41.42;34.15;;;;;;;25.96;76.33;96608.94;1664198;85;20982;-81
2021/06/24 08:50:27;;;;;;;42.98;36.48;;;;;;;25.91;76.00;96612.97;1664325;85;21037;-82
2021/06/24 08:52:55;;;;;;;45.35;34.67;;;;;;;26.03;76.58;96618.23;1637704;87;20962;-81
2021/06/24 08:55:21;;;;;;;41.40;34.08;;;;;;;26.05;76.09;96619.28;1657252;86;21043;-82
2021/06/24 08:57:48;;;;;;;41.15;32.58;;;;;;;26.06;76.12;96614.22;1668497;85;21343;-82
2021/06/24 09:00:15;;;;;;;42.33;36.48;;;;;;;26.39;74.84;96612.72;1649843;86;20978;-81
2021/06/24 09:02:42;;;;;;;41.33;32.33;;;;;;;26.39;74.84;96612.72;1667427;85;20979;-81
2021/06/24 09:05:10;;;;;;;43.38;37.10;;;;;;;26.51;74.24;96611.02;1669075;85;21047;-82
2021/06/24 09:07:50;;;;;;;38.20;34.10;;;;;;;26.49;73.30;96603.84;1669494;86;20920;-82
2021/06/24 09:10:16;;;;;;;35.83;31.87;;;;;;;26.56;74.43;96607.01;1666116;85;20963;-82
2021/06/24 09:12:57;;;;;;;45.17;37.08;;;;;;;26.69;74.58;96607.71;1669238;86;20976;-82
2021/06/24 09:15:24;;;;;;;44.93;36.33;;;;;;;26.69;74.58;96607.71;1646460;85;20966;-81
2021/06/24 09:17:50;;;;;;;42.27;33.98;;;;;;;26.81;72.58;96613.45;1664281;86;20918;-82
2021/06/24 09:20:25;;;;;;;39.00;33.65;;;;;;;26.84;74.23;96607.55;1667577;85;20979;-82
2021/06/24 09:23:12;;;;;;;38.05;33.92;;;;;;;27.01;73.82;96609.87;1664293;85;20982;-82
2021/06/24 09:25:52;;;;;;;38.58;32.90;;;;;;;27.07;73.90;96607.40;1649711;85;20955;-81
2021/06/24 09:28:18;;;;;;;39.53;34.70;;;;;;;26.98;73.02;96609.04;1664391;85;21324;-82
2021/06/24 09:30:44;;;;;;;38.75;34.58;;;;;;;27.01;73.27;96603.20;1668605;85;20976;-81
2021/06/24 09:33:15;;;;;;;37.55;33.38;;;;;;;27.07;73.61;96599.94;1639223;86;20931;-82
2021/06/24 09:35:43;;;;;;;;;;;;;;;27.11;73.57;96594.29;1671447;85;20979;-82
2021/06/24 09:38:14;;;;;;;38.48;32.45;;;;;;;27.12;73.23;96591.88;1668683;85;20101;-82
2021/06/24 09:40:52;;;;;;;;;;;;;;;27.18;73.77;96601.44;1671762;86;20932;-82
2021/06/24 09:43:40;;;;;;;38.70;33.55;;;;;;;27.17;72.68;96603.31;1669179;85;20324;-82
2021/06/24 09:46:15;;;;;;;37.23;32.75;;;;;;;27.27;73.24;96594.39;1667058;85;21006;-82
2021/06/24 09:48:46;;;;;;;39.13;33.63;;;;;;;27.34;73.18;96601.53;1667519;85;20964;-82
2021/06/24 09:51:34;;;;;;;37.98;33.90;;;;;;;27.30;73.04;96588.48;1650694;85;20979;-82
2021/06/24 09:54:13;;;;;;;35.78;31.95;;;;;;;27.40;72.57;96580.92;1665509;85;20946;-82
2021/06/24 09:56:44;;;;;;;36.17;32.38;;;;;;;27.52;73.10;96590.66;1649682;85;20991;-82
2021/06/24 09:59:14;;;;;;;37.60;32.48;;;;;;;27.60;72.19;96597.23;1643785;86;20965;-82
2021/06/24 10:01:43;;;;;;;37.48;33.58;;;;;;;27.63;72.99;96593.48;1660552;85;21308;-82
2021/06/24 10:04:22;;;;;;;36.68;32.85;;;;;;;27.69;72.23;96588.35;1645290;86;21324;-82
2021/06/24 10:06:53;;;;;;;33.73;30.27;;;;;;;27.71;72.39;96590.73;1662855;85;21051;-82
2021/06/24 10:09:20;;;;;;;35.88;32.03;;;;;;;27.70;71.71;96589.14;1660570;85;20928;-81
2021/06/24 10:11:46;;;;;;;39.10;34.98;;;;;;;27.69;72.29;96586.22;1663837;85;21439;-82
2021/06/24 10:14:12;;;;;;;38.78;33.33;;;;;;;27.73;71.92;96585.36;1629153;86;20932;-82
2021/06/24 10:16:38;;;;;;;40.50;35.33;;;;;;;27.80;72.37;96577.78;1664225;85;21006;-82
2021/06/24 10:19:04;;;;;;;37.70;33.60;;;;;;;27.90;72.14;96577.41;1659295;85;20982;-82
2021/06/24 10:21:32;;;;;;;38.30;33.78;;;;;;;27.98;72.47;96569.53;1661420;85;21023;-82
2021/06/24 10:24:09;;;;;;;36.88;33.10;;;;;;;28.03;71.66;96574.81;1654891;85;21109;-82
2021/06/24 10:26:38;;;;;;;38.00;33.90;;;;;;;28.08;71.61;96570.73;1650323;85;20983;-82
2021/06/24 10:29:14;;;;;;;36.40;32.38;;;;;;;28.13;70.96;96569.06;1660578;85;20947;-82
2021/06/24 10:31:52;;;;;;;35.85;32.35;;;;;;;28.19;71.87;96563.37;1664298;85;21011;-82
2021/06/24 10:34:18;;;;;;;38.85;34.85;;;;;;;28.27;71.60;96568.63;1662206;85;21301;-82
2021/06/24 10:37:13;;;;;;;37.55;33.35;;;;;;;28.18;71.12;96569.02;1662736;86;21014;-82
2021/06/24 10:39:41;;;;;;;37.83;32.63;;;;;;;28.18;70.82;96563.67;1643709;85;21037;-82
2021/06/24 10:42:12;;;;;;;36.68;32.75;;;;;;;28.19;70.73;96558.03;1659680;86;21027;-82
2021/06/24 10:44:46;;;;;;;35.25;31.73;;;;;;;28.31;71.37;96557.59;1647236;85;21049;-82
2021/06/24 10:47:12;;;;;;;33.83;30.37;;;;;;;28.43;71.46;96553.95;1658580;85;20966;-82
2021/06/24 10:49:38;;;;;;;35.08;31.48;;;;;;;28.56;70.53;96552.41;1661730;84;20941;-82
2021/06/24 10:52:27;;;;;;;34.78;31.05;;;;;;;28.61;71.02;96557.12;1637914;86;21301;-82
2021/06/24 10:54:55;;;;;;;29.85;26.75;;;;;;;28.67;71.85;96550.63;1651357;85;21221;-82
2021/06/24 10:57:37;;;;;;;34.60;31.02;;;;;;;28.78;69.35;96545.08;1636492;86;21033;-82
2021/06/24 11:00:41;;;;;;;36.75;32.98;;;;;;;28.70;70.93;96550.58;1658388;86;20937;-82
2021/06/24 11:03:11;;;;;;;34.67;31.02;;;;;;;28.64;70.48;96544.53;1656856;85;20960;-82
2021/06/24 11:05:43;;;;;;;32.58;29.10;;;;;;;28.59;71.17;96539.25;1661177;85;20948;-82
2021/06/24 11:08:12;;;;;;;31.87;28.57;;;;;;;28.67;69.75;96539.13;1662488;85;20954;-82
2021/06/24 11:11:08;;;;;;;33.08;29.55;;;;;;;28.67;70.22;96541.27;1643118;85;21343;-82
2021/06/24 11:13:42;;;;;;;32.38;29.12;;;;;;;28.70;70.45;96543.34;1661091;85;20976;-82
2021/06/24 11:16:20;;;;;;;33.70;30.23;;;;;;;28.73;70.88;96542.50;1646533;85;21036;-82
2021/06/24 11:18:53;;;;;;;33.15;29.85;;;;;;;28.69;70.18;96543.64;1661608;85;20940;-82